Time;durP1;ratioP1;P1;durP2;ratioP2;P2;SDS_P1;SDS_P2;PMS_P1;PMS_P2;Temp;Humidity;BMP_temperature;BMP_pressure;BME280_temperature;BME280_humidity;BME280_pressure;Samples;Min_cycle;Max_cycle;Signal;HPM_P1;HPM_P2
2023/08/03 00:00:24;;;;;;;7.13;3.42;;;;;;;-142.57;57.99;115900.28;5033546;28;20034;-87
2023/08/03 00:02:51;;;;;;;11.50;3.60;;;;;;;-142.57;58.00;115900.28;5034690;28;20075;-88
2023/08/03 00:05:19;;;;;;;14.73;3.58;;;;;;;-142.57;58.31;115900.28;5035214;28;20456;-85
2023/08/03 00:07:46;;;;;;;11.27;3.35;;;;;;;-142.57;58.10;115900.28;5038065;28;20364;-86
2023/08/03 00:10:11;;;;;;;14.48;3.72;;;;;;;-142.57;58.36;115900.28;5053778;28;20444;-85
2023/08/03 00:12:37;;;;;;;10.50;3.20;;;;;;;-142.57;58.79;115900.28;5053358;28;20037;-85
2023/08/03 00:15:03;;;;;;;13.77;3.88;;;;;;;-142.57;58.72;115900.28;5053700;28;20087;-87
2023/08/03 00:17:29;;;;;;;13.50;3.28;;;;;;;-142.57;58.56;115900.28;5054054;28;20021;-85
2023/08/03 00:19:54;;;;;;;11.70;3.28;;;;;;;-142.57;58.60;115900.28;5059129;28;20355;-86
2023/08/03 00:22:20;;;;;;;10.02;3.65;;;;;;;-142.57;58.27;115900.28;5059978;28;20036;-86
2023/08/03 00:24:46;;;;;;;11.95;3.67;;;;;;;-142.57;58.49;115900.28;5055435;28;20029;-86
2023/08/03 00:27:14;;;;;;;11.30;3.38;;;;;;;-142.57;58.28;115900.28;5054651;28;20037;-86
2023/08/03 00:29:40;;;;;;;5.15;2.90;;;;;;;-142.57;58.14;115900.28;5054670;28;20466;-86
2023/08/03 00:32:06;;;;;;;10.88;2.90;;;;;;;-142.57;58.36;115900.28;5055008;28;20159;-86
2023/08/03 00:34:32;;;;;;;12.18;3.30;;;;;;;-142.57;58.33;115900.28;5054476;28;20041;-85
2023/08/03 00:36:57;;;;;;;6.88;3.10;;;;;;;-142.57;58.58;115900.28;5054545;28;20375;-84
2023/08/03 00:39:24;;;;;;;9.60;3.70;;;;;;;-142.57;58.63;115900.28;5052773;28;20037;-86
2023/08/03 00:41:50;;;;;;;10.68;3.42;;;;;;;-142.57;58.65;115900.28;5036308;28;20116;-86
2023/08/03 00:44:19;;;;;;;10.10;3.53;;;;;;;-142.57;58.41;115900.28;5052955;28;20075;-86
2023/08/03 00:46:45;;;;;;;14.05;3.85;;;;;;;-142.57;58.34;115900.28;5054381;28;20040;-84
2023/08/03 00:49:11;;;;;;;10.07;3.30;;;;;;;-142.57;58.31;115900.28;5054682;28;20394;-86
2023/08/03 00:51:36;;;;;;;9.95;3.53;;;;;;;-142.57;58.12;115900.28;5054721;28;20040;-87
2023/08/03 00:54:06;;;;;;;12.25;3.20;;;;;;;-142.57;58.29;115900.28;5053990;28;20076;-87
2023/08/03 00:56:36;;;;;;;7.20;2.72;;;;;;;-142.57;58.11;115900.28;5053717;28;20057;-88
2023/08/03 00:59:10;;;;;;;6.63;2.88;;;;;;;-142.57;58.07;115900.28;5056774;28;20443;-87
2023/08/03 01:01:37;;;;;;;8.88;3.03;;;;;;;-142.57;57.58;115900.28;5058003;28;20037;-86
2023/08/03 01:04:03;;;;;;;9.48;3.78;;;;;;;-142.57;57.63;115900.28;5063849;28;20013;-88
2023/08/03 01:06:29;;;;;;;7.63;3.00;;;;;;;-142.57;57.79;115900.28;5080545;28;20027;-87
2023/08/03 01:08:55;;;;;;;12.60;4.22;;;;;;;-142.57;57.74;115900.28;5080676;28;20040;-86
2023/08/03 01:11:21;;;;;;;10.07;3.28;;;;;;;-142.57;58.34;115900.28;5081305;28;20021;-89
2023/08/03 01:13:46;;;;;;;8.65;3.70;;;;;;;-142.57;58.64;115900.28;5080757;28;20027;-87
2023/08/03 01:23:47;;;;;;;8.82;3.40;;;;;;;-142.57;60.78;115900.28;5064286;28;20072;-84
2023/08/03 01:26:12;;;;;;;15.70;4.15;;;;;;;-142.57;60.74;115900.28;5060724;28;20045;-85
2023/08/03 01:28:38;;;;;;;11.02;4.60;;;;;;;-142.57;60.70;115900.28;5056333;28;20481;-86
2023/08/03 01:31:04;;;;;;;14.20;5.10;;;;;;;-142.57;61.22;115900.28;5055548;28;20061;-85
2023/08/03 01:33:31;;;;;;;12.27;4.82;;;;;;;-142.57;61.89;115900.28;5057152;28;20092;-87
2023/08/03 01:35:56;;;;;;;16.85;4.50;;;;;;;-142.57;62.64;115900.28;5057182;28;20037;-87
2023/08/03 01:38:21;;;;;;;13.20;4.40;;;;;;;-142.57;63.57;115900.28;5056413;28;20473;-85
2023/08/03 01:40:47;;;;;;;11.32;5.05;;;;;;;-142.57;64.28;115900.28;5055616;28;20041;-85
2023/08/03 01:43:13;;;;;;;12.60;4.55;;;;;;;-142.57;65.43;115900.28;5056799;28;20049;-86
2023/08/03 01:45:38;;;;;;;12.20;4.70;;;;;;;-142.57;65.67;115900.28;5055605;28;20379;-86
2023/08/03 01:48:04;;;;;;;15.82;4.93;;;;;;;-142.57;66.27;115900.28;5057015;28;20037;-86
2023/08/03 01:50:30;;;;;;;13.95;4.90;;;;;;;-142.57;66.47;115900.28;5055875;28;20099;-87
2023/08/03 01:52:55;;;;;;;14.80;4.82;;;;;;;-142.57;66.81;115900.28;5056621;28;20043;-87
2023/08/03 01:55:21;;;;;;;14.93;5.07;;;;;;;-142.57;67.56;115900.28;5056283;28;20037;-85
2023/08/03 01:57:47;;;;;;;13.63;4.50;;;;;;;-142.57;67.66;115900.28;5038371;28;20102;-85
2023/08/03 02:00:13;;;;;;;19.42;5.63;;;;;;;-142.57;67.85;115900.28;5055391;28;20025;-86
2023/08/03 02:02:38;;;;;;;12.25;5.00;;;;;;;-142.57;68.23;115900.28;5056775;28;20021;-88
2023/08/03 02:05:06;;;;;;;14.35;4.63;;;;;;;-142.57;68.18;115900.28;5056566;28;20039;-87
2023/08/03 02:07:46;;;;;;;17.55;4.40;;;;;;;-142.57;68.51;115900.28;5054902;28;20084;-87
2023/08/03 02:10:13;;;;;;;10.73;4.53;;;;;;;-142.57;69.80;115900.28;5054133;28;20052;-87
2023/08/03 02:12:41;;;;;;;14.75;4.63;;;;;;;-142.57;69.84;115900.28;5055069;28;20073;-87
2023/08/03 02:15:07;;;;;;;12.95;4.55;;;;;;;-142.57;70.19;115900.28;5056449;28;20154;-86
2023/08/03 02:17:33;;;;;;;14.75;4.60;;;;;;;-142.57;71.09;115900.28;5038412;28;20048;-87
2023/08/03 02:19:59;;;;;;;14.00;4.80;;;;;;;-142.57;72.25;115900.28;5054805;28;20036;-87
2023/08/03 02:22:25;;;;;;;13.85;4.75;;;;;;;-142.57;72.21;115900.28;5038246;28;20029;-86
2023/08/03 02:24:51;;;;;;;13.10;4.53;;;;;;;-142.57;72.59;115900.28;5038171;28;20175;-87
2023/08/03 02:27:16;;;;;;;14.65;5.15;;;;;;;-142.57;72.79;115900.28;5056248;28;20090;-87
2023/08/03 02:29:42;;;;;;;13.05;5.20;;;;;;;-142.57;72.94;115900.28;5055740;28;20045;-88
2023/08/03 02:32:08;;;;;;;13.70;4.90;;;;;;;-142.57;74.34;115900.28;5055430;28;20017;-86
2023/08/03 02:34:35;;;;;;;15.45;4.93;;;;;;;-142.57;74.63;115900.28;5054538;28;20442;-88
2023/08/03 02:37:01;;;;;;;17.70;4.85;;;;;;;-142.57;73.93;115900.28;5054257;28;20071;-88
2023/08/03 02:39:27;;;;;;;17.02;5.63;;;;;;;-142.57;74.12;115900.28;5067393;28;20056;-87
2023/08/03 02:41:53;;;;;;;14.27;4.70;;;;;;;-142.57;73.92;115900.28;5070370;28;20041;-86
2023/08/03 02:44:23;;;;;;;14.02;5.00;;;;;;;-142.57;74.01;115900.28;5065106;28;20124;-87
2023/08/03 02:46:49;;;;;;;16.60;4.97;;;;;;;-142.57;75.19;115900.28;5066679;28;20067;-86
2023/08/03 02:49:15;;;;;;;9.88;4.55;;;;;;;-142.57;75.75;115900.28;5063577;28;20024;-87
2023/08/03 02:51:44;;;;;;;14.30;4.88;;;;;;;-142.57;75.99;115900.28;5041905;28;20041;-88
2023/08/03 02:54:11;;;;;;;13.98;5.35;;;;;;;-142.57;75.17;115900.28;5054706;28;20037;-86
2023/08/03 02:56:43;;;;;;;13.88;4.75;;;;;;;-142.57;75.29;115900.28;5055797;28;20553;-86
2023/08/03 02:59:09;;;;;;;13.93;5.13;;;;;;;-142.57;74.55;115900.28;5057306;28;20075;-87
2023/08/03 03:01:41;;;;;;;13.27;4.97;;;;;;;-142.57;74.57;115900.28;5054618;28;20533;-88
2023/08/03 03:04:07;;;;;;;15.10;4.90;;;;;;;-142.57;75.79;115900.28;5053833;28;20048;-86
2023/08/03 03:06:38;;;;;;;15.85;4.93;;;;;;;-142.57;76.09;115900.28;5054553;28;20498;-84
2023/08/03 03:09:05;;;;;;;10.05;4.72;;;;;;;-142.57;76.87;115900.28;5054499;28;20052;-85
2023/08/03 03:11:31;;;;;;;16.77;5.13;;;;;;;-142.57;77.24;115900.28;5053596;28;20036;-84
2023/08/03 03:13:56;;;;;;;10.95;4.60;;;;;;;-142.57;77.51;115900.28;5055251;28;20404;-85
2023/08/03 03:16:25;;;;;;;13.60;4.72;;;;;;;-142.57;77.12;115900.28;5055094;28;20029;-87
2023/08/03 03:18:52;;;;;;;19.67;5.38;;;;;;;-142.57;77.17;115900.28;5053405;28;20032;-85
2023/08/03 03:21:19;;;;;;;15.63;5.80;;;;;;;-142.57;77.60;115900.28;5053621;28;20040;-86
2023/08/03 03:23:46;;;;;;;19.67;5.38;;;;;;;-142.57;77.27;115900.28;5053318;28;20122;-85
2023/08/03 03:26:11;;;;;;;13.65;5.05;;;;;;;-142.57;76.56;115900.28;5054506;28;20028;-86
2023/08/03 03:28:37;;;;;;;14.05;4.93;;;;;;;-142.57;76.46;115900.28;5053735;28;20115;-86
2023/08/03 03:31:03;;;;;;;14.52;5.93;;;;;;;-142.57;77.79;115900.28;5054549;28;20037;-86
2023/08/03 03:33:28;;;;;;;16.17;5.47;;;;;;;-142.57;77.32;115900.28;5054214;28;20044;-87
2023/08/03 03:36:06;;;;;;;12.10;5.32;;;;;;;-142.57;78.20;115900.28;5053737;28;20468;-87
2023/08/03 03:38:32;;;;;;;14.27;5.38;;;;;;;-142.57;78.68;115900.28;5036752;28;20045;-85
2023/08/03 03:40:58;;;;;;;15.65;5.43;;;;;;;-142.57;79.06;115900.28;5054480;28;20146;-86
2023/08/03 03:43:24;;;;;;;18.23;5.32;;;;;;;-142.57;79.40;115900.28;5053618;28;20040;-85
2023/08/03 03:45:50;;;;;;;17.40;5.63;;;;;;;-142.57;80.45;115900.28;5052951;28;20040;-85
2023/08/03 03:48:18;;;;;;;19.95;5.82;;;;;;;-142.57;82.37;115900.28;5053717;28;20090;-85
2023/08/03 03:50:43;;;;;;;16.15;5.63;;;;;;;-142.57;83.25;115900.28;5052993;28;20392;-84
2023/08/03 03:53:09;;;;;;;19.58;5.40;;;;;;;-142.57;83.38;115900.28;5052857;28;20573;-85
2023/08/03 03:55:39;;;;;;;19.17;5.90;;;;;;;-142.57;83.62;115900.28;5052096;28;20580;-85
2023/08/03 03:58:06;;;;;;;20.08;6.03;;;;;;;-142.57;83.93;115900.28;5052125;28;20124;-86
2023/08/03 04:00:39;;;;;;;14.48;5.57;;;;;;;-142.57;83.91;115900.28;5035854;28;20033;-86
2023/08/03 04:03:09;;;;;;;14.27;6.35;;;;;;;-142.57;83.51;115900.28;5052347;28;20481;-87
2023/08/03 04:05:38;;;;;;;24.33;6.60;;;;;;;-142.57;82.72;115900.28;5052846;28;20041;-88
2023/08/03 04:08:04;;;;;;;13.88;5.15;;;;;;;-142.57;83.05;115900.28;5051859;28;20033;-86
2023/08/03 04:10:31;;;;;;;20.15;5.93;;;;;;;-142.57;83.45;115900.28;5053229;28;20543;-88
2023/08/03 04:12:57;;;;;;;15.40;6.55;;;;;;;-142.57;82.71;115900.28;5053330;28;20029;-86
2023/08/03 04:15:27;;;;;;;17.33;6.40;;;;;;;-142.57;83.77;115900.28;5035465;28;20043;-87
2023/08/03 04:17:52;;;;;;;19.20;6.10;;;;;;;-142.57;83.72;115900.28;5035149;28;20529;-86
2023/08/03 04:20:24;;;;;;;20.85;6.07;;;;;;;-142.57;84.71;115900.28;5045331;28;20040;-84
2023/08/03 04:22:50;;;;;;;21.55;6.65;;;;;;;-142.57;85.96;115900.28;5016428;28;20037;-85
2023/08/03 04:25:18;;;;;;;14.75;5.70;;;;;;;-142.57;85.37;115900.28;5032144;28;20033;-86
2023/08/03 04:27:49;;;;;;;19.73;5.78;;;;;;;-142.57;84.63;115900.28;5031706;28;20049;-85
2023/08/03 04:30:20;;;;;;;17.15;6.40;;;;;;;-142.57;84.03;115900.28;5033780;28;20037;-93
2023/08/03 04:32:46;;;;;;;18.73;5.75;;;;;;;-142.57;83.33;115900.28;5037524;28;20389;-92
2023/08/03 04:35:13;;;;;;;15.77;5.25;;;;;;;-142.57;82.91;115900.28;5038165;28;20049;-84
2023/08/03 04:37:43;;;;;;;18.38;6.03;;;;;;;-142.57;82.81;115900.28;5036695;28;20014;-88
2023/08/03 04:40:09;;;;;;;17.00;5.38;;;;;;;-142.57;82.15;115900.28;5037820;28;20061;-90
2023/08/03 04:42:35;;;;;;;22.15;6.10;;;;;;;-142.57;83.03;115900.28;5037953;28;20033;-88
2023/08/03 04:45:04;;;;;;;20.85;5.90;;;;;;;-142.57;83.19;115900.28;5037511;28;20534;-89
2023/08/03 04:47:31;;;;;;;16.98;5.78;;;;;;;-142.57;83.22;115900.28;5037534;28;20048;-90
2023/08/03 04:50:01;;;;;;;17.48;6.07;;;;;;;-142.57;83.39;115900.28;5037072;28;20124;-90
2023/08/03 04:52:26;;;;;;;20.30;5.93;;;;;;;-142.57;83.07;115900.28;5036909;28;20379;-91
2023/08/03 04:54:53;;;;;;;23.50;6.30;;;;;;;-142.57;82.48;115900.28;5036800;28;20029;-88
2023/08/03 04:57:18;;;;;;;20.45;6.28;;;;;;;-142.57;81.49;115900.28;5049982;28;20496;-90
2023/08/03 04:59:44;;;;;;;19.80;5.93;;;;;;;-142.57;80.87;115900.28;5053330;28;20044;-90
2023/08/03 05:02:09;;;;;;;18.58;5.80;;;;;;;-142.57;79.49;115900.28;5049917;28;20041;-86
2023/08/03 05:04:37;;;;;;;13.88;5.45;;;;;;;-142.57;79.25;115900.28;5060369;28;20026;-90
2023/08/03 05:07:28;;;;;;;18.55;5.63;;;;;;;-142.57;78.84;115900.28;5055083;28;20029;-89
2023/08/03 05:09:54;;;;;;;18.83;5.70;;;;;;;-142.57;79.49;115900.28;5060944;28;20085;-90
2023/08/03 05:12:20;;;;;;;22.88;6.05;;;;;;;-142.57;78.61;115900.28;5044018;28;20068;-90
2023/08/03 05:14:46;;;;;;;19.65;5.97;;;;;;;-142.57;78.25;115900.28;5060794;28;20139;-89
2023/08/03 05:17:33;;;;;;;18.88;6.30;;;;;;;-142.57;77.17;115900.28;5059059;28;20041;-87
2023/08/03 05:19:59;;;;;;;15.48;5.55;;;;;;;-142.57;77.08;115900.28;5042117;28;20037;-90
2023/08/03 05:22:27;;;;;;;17.20;5.93;;;;;;;-142.57;77.08;115900.28;5042836;28;20021;-89
2023/08/03 05:25:02;;;;;;;19.55;5.82;;;;;;;-142.57;75.45;115900.28;5051130;28;20032;-92
2023/08/03 05:27:31;;;;;;;21.80;5.93;;;;;;;-142.57;74.92;115900.28;5060945;28;20492;-86
2023/08/03 05:29:58;;;;;;;15.43;5.95;;;;;;;-142.57;74.00;115900.28;5062029;28;20087;-88
2023/08/03 05:32:26;;;;;;;20.63;5.70;;;;;;;-142.57;73.26;115900.28;5060091;28;20469;-87
2023/08/03 05:34:52;;;;;;;19.20;6.65;;;;;;;-142.57;71.65;115900.28;5061349;28;20060;-88
2023/08/03 05:37:18;;;;;;;15.45;5.60;;;;;;;-142.57;70.83;115900.28;5061260;28;20033;-89
2023/08/03 05:39:44;;;;;;;19.70;6.03;;;;;;;-142.57;70.67;115900.28;5063817;28;20037;-91
2023/08/03 05:42:22;;;;;;;25.05;6.13;;;;;;;-142.57;69.64;115900.28;5056973;28;20029;-88
2023/08/03 05:44:49;;;;;;;17.55;6.05;;;;;;;-142.57;68.57;115900.28;5048213;28;20065;-90
2023/08/03 05:47:18;;;;;;;16.90;6.18;;;;;;;-142.57;68.04;115900.28;5048893;28;20466;-88
2023/08/03 05:49:44;;;;;;;17.30;5.90;;;;;;;-142.57;66.48;115900.28;5054205;28;20067;-88
2023/08/03 05:52:10;;;;;;;25.15;5.95;;;;;;;-142.57;64.62;115900.28;5056241;28;20034;-89
2023/08/03 05:54:36;;;;;;;25.23;6.60;;;;;;;-142.57;63.53;115900.28;5053970;28;20047;-88
2023/08/03 05:57:03;;;;;;;19.77;6.43;;;;;;;-142.57;62.20;115900.28;5039120;28;20017;-90
2023/08/03 05:59:35;;;;;;;17.10;6.75;;;;;;;-142.57;59.78;115900.28;5058310;28;20040;-92
2023/08/03 06:02:08;;;;;;;23.48;6.45;;;;;;;-142.57;59.54;115900.28;5065002;28;20029;-89
2023/08/03 06:04:35;;;;;;;16.95;6.20;;;;;;;-142.57;58.32;115900.28;5039616;28;20041;-90
2023/08/03 06:07:27;;;;;;;21.88;6.60;;;;;;;-142.57;55.63;115900.28;5059264;28;20048;-89
2023/08/03 06:09:58;;;;;;;22.70;7.15;;;;;;;-142.57;53.54;115900.28;5053254;28;20029;-91
2023/08/03 06:12:25;;;;;;;17.13;6.97;;;;;;;-142.57;53.26;115900.28;5029495;28;20041;-91
2023/08/03 06:14:50;;;;;;;20.98;6.88;;;;;;;-142.57;53.35;115900.28;5056405;28;20043;-91
2023/08/03 06:17:22;;;;;;;19.13;7.00;;;;;;;-142.57;52.31;115900.28;5059508;28;20367;-90
2023/08/03 06:19:48;;;;;;;16.73;6.05;;;;;;;-142.57;51.75;115900.28;5058514;28;20449;-88
2023/08/03 06:22:20;;;;;;;19.92;5.85;;;;;;;-142.57;47.94;115900.28;5061824;28;20067;-92
2023/08/03 06:24:58;;;;;;;20.00;7.07;;;;;;;-142.57;48.50;115900.28;5064660;28;20037;-89
2023/08/03 06:27:26;;;;;;;23.52;6.47;;;;;;;-142.57;52.51;115900.28;5063323;28;20041;-91
2023/08/03 06:29:52;;;;;;;18.52;7.38;;;;;;;-142.57;51.00;115900.28;5060843;28;20031;-91
2023/08/03 06:32:25;;;;;;;21.23;7.10;;;;;;;-142.57;48.69;115900.28;5062811;28;20037;-91
2023/08/03 06:35:03;;;;;;;21.00;7.00;;;;;;;-142.57;50.45;115900.28;5064033;28;20064;-90
2023/08/03 06:37:29;;;;;;;26.15;6.60;;;;;;;-142.57;50.76;115900.28;5060201;28;20048;-89
2023/08/03 06:39:54;;;;;;;19.40;6.82;;;;;;;-142.57;50.11;115900.28;5058274;28;20029;-88
2023/08/03 06:42:20;;;;;;;19.50;7.15;;;;;;;-142.57;48.53;115900.28;5038650;28;20471;-88
2023/08/03 06:45:10;;;;;;;24.30;8.35;;;;;;;-142.57;48.08;115900.28;5045800;28;20034;-92
2023/08/03 06:47:36;;;;;;;20.73;6.82;;;;;;;-142.57;45.95;115900.28;5043677;28;20047;-89
2023/08/03 06:50:04;;;;;;;15.73;6.60;;;;;;;-142.57;45.71;115900.28;5040729;28;20048;-90
2023/08/03 06:52:30;;;;;;;23.70;7.15;;;;;;;-142.57;43.76;115900.28;5039090;28;20438;-88
2023/08/03 06:54:55;;;;;;;24.00;7.85;;;;;;;-142.57;43.61;115900.28;5037842;28;20028;-87
2023/08/03 06:57:21;;;;;;;17.80;6.55;;;;;;;-142.57;46.36;115900.28;5037873;28;20396;-88
2023/08/03 06:59:55;;;;;;;20.83;6.57;;;;;;;-142.57;43.75;115900.28;5021825;28;20056;-89
2023/08/03 07:02:21;;;;;;;18.55;7.82;;;;;;;-142.57;45.75;115900.28;5038191;28;20064;-88
2023/08/03 07:04:47;;;;;;;25.65;6.75;;;;;;;-142.57;45.74;115900.28;5038577;28;20029;-89
2023/08/03 07:07:16;;;;;;;16.75;7.05;;;;;;;-142.57;46.62;115900.28;5044915;28;20044;-89
2023/08/03 07:09:49;;;;;;;21.75;6.55;;;;;;;-142.57;47.21;115900.28;5037205;28;20049;-89
2023/08/03 07:12:15;;;;;;;17.67;6.93;;;;;;;-142.57;48.39;115900.28;5037737;28;20029;-88
2023/08/03 07:14:41;;;;;;;12.85;5.97;;;;;;;-142.57;50.14;115900.28;5039061;28;20042;-89
2023/08/03 07:17:07;;;;;;;15.38;7.25;;;;;;;-142.57;52.36;115900.28;5039832;28;20040;-89
2023/08/03 07:19:32;;;;;;;21.75;7.63;;;;;;;-142.57;51.19;115900.28;5044581;28;20053;-86
2023/08/03 07:21:58;;;;;;;17.17;6.95;;;;;;;-142.57;52.87;115900.28;5036283;28;20049;-90
2023/08/03 07:24:24;;;;;;;17.20;7.00;;;;;;;-142.57;53.03;115900.28;5039235;28;20053;-88
2023/08/03 07:26:52;;;;;;;22.25;8.13;;;;;;;-142.57;53.65;115900.28;5040425;28;20482;-88
2023/08/03 07:29:18;;;;;;;20.73;6.60;;;;;;;-142.57;53.69;115900.28;5039681;28;20093;-88
2023/08/03 07:31:48;;;;;;;22.50;8.05;;;;;;;-142.57;54.40;115900.28;5039066;28;20457;-88
2023/08/03 07:34:14;;;;;;;38.65;8.05;;;;;;;-142.57;54.15;115900.28;5042180;28;20049;-91
2023/08/03 07:36:40;;;;;;;21.00;7.75;;;;;;;-142.57;52.61;115900.28;5037257;28;20033;-90
2023/08/03 07:39:05;;;;;;;19.10;6.50;;;;;;;-142.57;51.25;115900.28;5035855;28;20038;-88
2023/08/03 07:41:31;;;;;;;26.08;8.68;;;;;;;-142.57;53.30;115900.28;5037059;28;20022;-86
2023/08/03 07:43:56;;;;;;;22.45;7.57;;;;;;;-142.57;48.56;115900.28;5036284;28;20482;-88
2023/08/03 07:46:22;;;;;;;23.25;7.38;;;;;;;-142.57;48.07;115900.28;5034543;28;20038;-85
2023/08/03 07:49:11;;;;;;;26.40;7.47;;;;;;;-142.57;48.99;115900.28;5047532;28;20030;-90
2023/08/03 07:51:37;;;;;;;22.05;6.85;;;;;;;-142.57;49.91;115900.28;5035612;28;20045;-90
2023/08/03 07:54:02;;;;;;;18.15;6.82;;;;;;;-142.57;50.43;115900.28;5065336;28;20043;-92
2023/08/03 07:56:47;;;;;;;20.92;6.35;;;;;;;-142.57;51.54;115900.28;5064714;28;20029;-90
2023/08/03 07:59:12;;;;;;;17.48;6.68;;;;;;;-142.57;52.86;115900.28;5049997;28;20033;-91
2023/08/03 08:01:45;;;;;;;17.75;5.00;;;;;;;-142.57;48.92;115900.28;5062477;28;20435;-92
2023/08/03 08:04:20;;;;;;;18.83;5.18;;;;;;;-142.57;48.51;115900.28;5064983;28;20036;-91
2023/08/03 08:07:28;;;;;;;13.25;4.45;;;;;;;-142.57;48.13;115900.28;5053062;28;20065;-91
2023/08/03 08:10:06;;;;;;;19.98;3.45;;;;;;;-142.57;44.33;115900.28;5055684;28;20044;-91
2023/08/03 08:12:37;;;;;;;7.57;2.15;;;;;;;-142.57;42.88;115900.28;5042079;28;20400;-94
2023/08/03 08:15:04;;;;;;;12.73;3.10;;;;;;;-142.57;41.10;115900.28;5056626;28;20034;-91
2023/08/03 08:18:00;;;;;;;6.13;2.80;;;;;;;-142.57;40.36;115900.28;5064564;28;20037;-93
2023/08/03 08:20:30;;;;;;;9.07;3.03;;;;;;;-142.57;39.88;115900.28;5061792;28;20040;-89
2023/08/03 08:23:08;;;;;;;6.97;2.40;;;;;;;-142.57;38.26;115900.28;5073421;28;20041;-90
2023/08/03 08:25:47;;;;;;;9.52;3.00;;;;;;;-142.57;39.03;115900.28;5062382;28;20053;-92
2023/08/03 08:28:13;;;;;;;11.82;2.58;;;;;;;-142.57;38.77;115900.28;5051436;28;20040;-90
2023/08/03 08:30:45;;;;;;;8.27;2.40;;;;;;;-142.57;37.21;115900.28;5067692;28;20133;-91
2023/08/03 08:33:43;;;;;;;12.55;2.70;;;;;;;-142.57;36.43;115900.28;5060847;28;20037;-91
2023/08/03 08:36:09;;;;;;;6.20;2.42;;;;;;;-142.57;36.69;115900.28;5046404;28;20033;-91
2023/08/03 08:38:41;;;;;;;7.25;2.38;;;;;;;-142.57;35.90;115900.28;5046232;28;20089;-92
2023/08/03 08:41:10;;;;;;;8.38;2.65;;;;;;;-142.57;36.12;115900.28;5050233;28;20049;-90
2023/08/03 08:43:42;;;;;;;7.90;2.17;;;;;;;-142.57;35.46;115900.28;5052492;28;20017;-90
2023/08/03 08:46:08;;;;;;;12.88;2.35;;;;;;;-142.57;35.22;115900.28;5038904;28;20037;-90
2023/08/03 08:48:35;;;;;;;6.75;2.10;;;;;;;-142.57;35.06;115900.28;5040606;28;20033;-89
2023/08/03 08:51:03;;;;;;;9.57;2.45;;;;;;;-142.57;34.72;115900.28;5035593;28;20124;-88
2023/08/03 08:53:29;;;;;;;8.30;2.55;;;;;;;-142.57;34.21;115900.28;5043282;28;20052;-85
2023/08/03 08:55:55;;;;;;;13.43;2.90;;;;;;;-142.57;33.04;115900.28;5050181;28;20510;-87
2023/08/03 08:58:20;;;;;;;7.82;2.15;;;;;;;-142.57;32.60;115900.28;5053272;28;20060;-84
2023/08/03 09:00:47;;;;;;;9.85;2.50;;;;;;;-142.57;32.26;115900.28;5050963;28;20041;-87
2023/08/03 09:03:14;;;;;;;7.18;2.13;;;;;;;-142.57;31.91;115900.28;5050452;28;20028;-89
2023/08/03 09:05:40;;;;;;;6.68;2.25;;;;;;;-142.57;31.97;115900.28;5065444;28;20029;-88
2023/08/03 09:08:14;;;;;;;8.57;2.42;;;;;;;-142.57;32.01;115900.28;5059987;28;20028;-89
2023/08/03 09:10:53;;;;;;;4.50;2.35;;;;;;;-142.57;32.10;115900.28;5055609;28;20026;-85
2023/08/03 09:13:24;;;;;;;13.27;2.28;;;;;;;-142.57;31.83;115900.28;5068966;28;20041;-87
2023/08/03 09:15:50;;;;;;;16.77;2.55;;;;;;;-142.57;31.15;115900.28;5054775;28;20111;-84
2023/08/03 09:18:15;;;;;;;9.50;2.30;;;;;;;-142.57;30.26;115900.28;5041390;28;20061;-85
2023/08/03 09:20:41;;;;;;;8.88;2.53;;;;;;;-142.57;31.36;115900.28;5057121;28;20543;-86
2023/08/03 09:23:06;;;;;;;10.15;2.10;;;;;;;-142.57;30.26;115900.28;5040850;28;20040;-86
2023/08/03 09:25:32;;;;;;;5.90;2.13;;;;;;;-142.57;30.58;115900.28;5051753;28;20389;-85
2023/08/03 09:27:57;;;;;;;6.38;2.08;;;;;;;-142.57;31.05;115900.28;5042718;28;20087;-82
2023/08/03 09:30:24;;;;;;;62.55;4.57;;;;;;;-142.57;31.10;115900.28;5057195;28;20033;-83
2023/08/03 09:32:50;;;;;;;7.18;2.17;;;;;;;-142.57;31.08;115900.28;5043364;28;20490;-83
2023/08/03 09:35:18;;;;;;;6.40;2.30;;;;;;;-142.57;29.87;115900.28;5035476;28;20060;-82
2023/08/03 09:37:50;;;;;;;56.53;4.78;;;;;;;-142.57;29.52;115900.28;5054886;28;20038;-89
2023/08/03 09:40:17;;;;;;;12.45;2.10;;;;;;;-142.57;30.06;115900.28;5043760;28;20060;-88
2023/08/03 09:42:44;;;;;;;7.75;2.20;;;;;;;-142.57;30.84;115900.28;5047124;28;20079;-84
2023/08/03 09:45:10;;;;;;;8.75;2.03;;;;;;;-142.57;31.29;115900.28;5049399;28;20044;-86
2023/08/03 09:47:36;;;;;;;5.47;2.15;;;;;;;-142.57;31.39;115900.28;5062286;28;20022;-85
2023/08/03 09:50:03;;;;;;;15.25;2.15;;;;;;;-142.57;31.03;115900.28;5055918;28;20024;-87
2023/08/03 09:52:30;;;;;;;25.02;2.78;;;;;;;-142.57;31.09;115900.28;5045660;28;20581;-85
2023/08/03 09:55:06;;;;;;;11.45;1.95;;;;;;;-142.57;30.78;115900.28;5049953;28;20127;-85
2023/08/03 09:57:40;;;;;;;12.13;1.98;;;;;;;-142.57;30.29;115900.28;5055372;28;20047;-88
2023/08/03 10:00:06;;;;;;;4.65;1.90;;;;;;;-142.57;30.17;115900.28;5059365;28;20028;-89
2023/08/03 10:03:09;;;;;;;9.82;1.85;;;;;;;-142.57;30.38;115900.28;5057881;28;20041;-85
2023/08/03 10:06:06;;;;;;;10.45;1.83;;;;;;;-142.57;30.31;115900.28;5047871;28;20138;-86
2023/08/03 10:08:42;;;;;;;7.68;2.00;;;;;;;-142.57;29.69;115900.28;5029127;28;20057;-85
2023/08/03 10:11:12;;;;;;;11.65;1.77;;;;;;;-142.57;30.19;115900.28;5056783;28;20116;-86
2023/08/03 10:13:42;;;;;;;28.63;2.65;;;;;;;-142.57;30.02;115900.28;5057123;28;20063;-87
2023/08/03 10:16:08;;;;;;;21.27;2.90;;;;;;;-142.57;30.40;115900.28;5058474;28;20033;-84
2023/08/03 10:18:37;;;;;;;24.60;2.38;;;;;;;-142.57;30.79;115900.28;5056310;28;20071;-86
2023/08/03 10:21:06;;;;;;;14.15;2.50;;;;;;;-142.57;30.27;115900.28;5056596;28;20068;-87
2023/08/03 10:23:35;;;;;;;22.20;2.53;;;;;;;-142.57;30.67;115900.28;5061914;28;20116;-88
2023/08/03 10:26:07;;;;;;;17.38;2.42;;;;;;;-142.57;30.14;115900.28;5058563;28;20033;-86
2023/08/03 10:28:38;;;;;;;12.48;2.22;;;;;;;-142.57;30.71;115900.28;5061309;28;20033;-84
2023/08/03 10:31:11;;;;;;;;;;;;;;;-142.57;30.96;115900.28;5059278;28;20060;-86
2023/08/03 10:33:46;;;;;;;14.85;2.15;;;;;;;-142.57;30.88;115900.28;5065123;28;19901;-88
2023/08/03 10:36:27;;;;;;;9.38;2.03;;;;;;;-142.57;30.81;115900.28;5057747;28;20075;-85
2023/08/03 10:39:18;;;;;;;6.93;2.10;;;;;;;-142.57;30.35;115900.28;5060630;28;20033;-90
2023/08/03 10:42:18;;;;;;;20.80;2.08;;;;;;;-142.57;30.06;115900.28;5053354;28;20041;-87
2023/08/03 10:44:44;;;;;;;12.93;1.70;;;;;;;-142.57;29.80;115900.28;5057514;28;20076;-90
2023/08/03 10:47:32;;;;;;;5.40;2.00;;;;;;;-142.57;29.76;115900.28;5058286;28;20087;-90
2023/08/03 10:49:58;;;;;;;24.33;2.28;;;;;;;-142.57;29.62;115900.28;5061571;28;20048;-89
2023/08/03 10:52:31;;;;;;;4.75;1.88;;;;;;;-142.57;29.38;115900.28;5055303;28;20029;-89
2023/08/03 10:54:58;;;;;;;5.90;1.85;;;;;;;-142.57;29.65;115900.28;5053543;28;20049;-88
2023/08/03 10:57:29;;;;;;;4.95;1.67;;;;;;;-142.57;30.28;115900.28;5024575;28;20041;-88
2023/08/03 10:59:58;;;;;;;9.30;2.13;;;;;;;-142.57;30.43;115900.28;5058804;28;20062;-86
2023/08/03 11:02:35;;;;;;;12.70;2.00;;;;;;;-142.57;30.73;115900.28;5062089;28;20115;-88
2023/08/03 11:05:06;;;;;;;7.27;1.80;;;;;;;-142.57;30.73;115900.28;5061050;28;20112;-90
2023/08/03 11:07:42;;;;;;;7.35;2.00;;;;;;;-142.57;30.43;115900.28;5063051;28;20043;-85
2023/08/03 11:10:16;;;;;;;7.22;1.58;;;;;;;-142.57;30.63;115900.28;5062646;28;20541;-85
2023/08/03 11:12:44;;;;;;;6.38;1.98;;;;;;;-142.57;29.54;115900.28;5064319;28;20446;-88
2023/08/03 11:15:21;;;;;;;4.70;2.00;;;;;;;-142.57;29.68;115900.28;5065028;28;20033;-86
2023/08/03 11:17:58;;;;;;;6.97;2.40;;;;;;;-142.57;29.74;115900.28;5048000;28;20044;-87
2023/08/03 11:20:30;;;;;;;7.05;2.28;;;;;;;-142.57;30.68;115900.28;5067402;28;20071;-89